createdAt,value
2019-02-21T00:01:05.138Z,90.06
2019-02-21T00:03:55.207Z,91.01
2019-02-21T00:06:45.330Z,94.72
2019-02-21T00:09:35.341Z,95.73
2019-02-21T00:12:25.526Z,96.01
2019-02-21T00:15:16.144Z,95.98
2019-02-21T00:18:06.555Z,94.27
2019-02-21T00:20:56.915Z,93.40
2019-02-21T00:23:47.787Z,92.33
2019-02-21T00:26:38.125Z,89.67
2019-02-21T00:29:28.608Z,86.23
2019-02-21T00:32:18.881Z,85.38
2019-02-21T00:35:09.666Z,84.78
2019-02-21T00:38:00.061Z,84.71
2019-02-21T00:40:50.343Z,85.96
2019-02-21T00:43:40.566Z,85.00
2019-02-21T00:46:30.619Z,85.43
2019-02-21T00:49:20.863Z,87.54
2019-02-21T00:52:11.363Z,89.64
2019-02-21T00:55:01.891Z,90.61
2019-02-21T00:57:52.402Z,91.06
2019-02-21T01:00:46.444Z,92.14
2019-02-21T01:03:34.354Z,93.47
2019-02-21T01:06:24.640Z,93.77
2019-02-21T01:09:14.827Z,93.56
2019-02-21T01:12:05.178Z,93.77
2019-02-21T01:14:55.506Z,92.80
2019-02-21T01:17:45.765Z,90.97
2019-02-21T01:20:36.102Z,91.18
2019-02-21T01:23:26.545Z,91.22
2019-02-21T01:26:17.184Z,90.25
2019-02-21T01:29:07.480Z,89.14
2019-02-21T01:31:57.632Z,87.07
2019-02-21T01:34:47.866Z,86.45
2019-02-21T01:37:37.835Z,86.14
2019-02-21T01:40:28.066Z,84.43
2019-02-21T01:43:18.386Z,84.12
2019-02-21T01:46:08.614Z,83.48
2019-02-21T01:48:59.578Z,82.69
2019-02-21T01:51:49.877Z,83.86
2019-02-21T01:54:40.388Z,85.00
2019-02-21T01:57:30.741Z,85.01
2019-02-21T02:00:20.795Z,87.63
2019-02-21T02:03:11.055Z,90.13
2019-02-21T02:06:01.343Z,89.95
2019-02-21T02:08:52.586Z,91.02
2019-02-21T02:11:42.759Z,91.72
2019-02-21T02:14:32.845Z,92.96
2019-02-21T02:17:23.194Z,95.32
2019-02-21T02:20:13.159Z,94.37
2019-02-21T02:23:03.757Z,93.11
2019-02-21T02:25:54.117Z,93.37
2019-02-21T02:28:44.404Z,94.01
2019-02-21T02:31:34.649Z,95.30
2019-02-21T02:34:24.711Z,94.89
2019-02-21T02:37:15.044Z,96.16
2019-02-21T02:40:05.412Z,97.65
2019-02-21T02:42:55.529Z,98.93
2019-02-21T02:45:48.355Z,100.00
2019-02-21T02:48:38.444Z,100.00
2019-02-21T02:51:28.877Z,100.00
2019-02-21T02:54:19.991Z,100.00
2019-02-21T02:57:10.721Z,100.00
2019-02-21T03:00:01.095Z,100.00
2019-02-21T03:02:51.214Z,100.00
2019-02-21T03:05:41.186Z,100.00
2019-02-21T03:08:31.271Z,100.00
2019-02-21T03:11:21.555Z,100.00
2019-02-21T03:14:11.897Z,100.00
2019-02-21T03:17:02.373Z,100.00
2019-02-21T03:19:52.681Z,100.00
2019-02-21T03:22:43.086Z,100.00
2019-02-21T03:25:33.361Z,100.00
2019-02-21T03:28:23.931Z,100.00
2019-02-21T03:31:14.206Z,100.00
2019-02-21T03:34:04.236Z,100.00
2019-02-21T03:36:55.480Z,100.00
2019-02-21T03:39:45.797Z,100.00
2019-02-21T03:42:36.030Z,100.00
2019-02-21T03:45:26.259Z,100.00
2019-02-21T03:48:20.730Z,100.00
2019-02-21T03:51:12.500Z,100.00
2019-02-21T03:54:02.492Z,100.00
2019-02-21T03:56:52.741Z,100.00
2019-02-21T03:59:43.112Z,100.00
2019-02-21T04:02:33.327Z,100.00
2019-02-21T04:05:23.901Z,100.00
2019-02-21T04:08:14.360Z,100.00
2019-02-21T04:11:04.730Z,100.00
2019-02-21T04:13:54.901Z,100.00
2019-02-21T04:16:44.886Z,100.00
2019-02-21T04:19:36.090Z,100.00
2019-02-21T04:22:26.382Z,100.00
2019-02-21T04:25:16.695Z,100.00
2019-02-21T04:28:06.990Z,100.00
2019-02-21T04:30:59.526Z,100.00
2019-02-21T04:33:49.588Z,100.00
2019-02-21T04:36:39.949Z,100.00
2019-02-21T04:39:30.230Z,100.00
2019-02-21T04:42:20.600Z,100.00
2019-02-21T04:45:10.902Z,100.00
2019-02-21T04:48:01.175Z,100.00
2019-02-21T04:50:54.274Z,100.00
2019-02-21T04:53:42.907Z,100.00
2019-02-21T04:56:33.275Z,100.00
2019-02-21T04:59:23.376Z,100.00
2019-02-21T05:02:13.700Z,100.00
2019-02-21T05:05:03.984Z,100.00
2019-02-21T05:07:54.521Z,100.00
2019-02-21T05:10:44.932Z,100.00
2019-02-21T05:13:35.258Z,100.00
2019-02-21T05:16:25.179Z,100.00
2019-02-21T05:19:15.471Z,100.00
2019-02-21T05:22:05.772Z,100.00
2019-02-21T05:24:55.901Z,100.00
2019-02-21T05:27:53.668Z,100.00
2019-02-21T05:30:43.699Z,100.00
2019-02-21T05:33:45.422Z,100.00
2019-02-21T05:36:44.527Z,100.00
2019-02-21T05:39:46.748Z,99.45
2019-02-21T05:42:59.511Z,97.62
2019-02-21T05:46:06.910Z,96.29
2019-02-21T05:49:21.381Z,94.97
2019-02-21T05:52:33.639Z,93.62
2019-02-21T05:55:29.161Z,92.49
2019-02-21T05:58:28.533Z,91.13
2019-02-21T06:01:40.747Z,89.45
2019-02-21T06:04:44.564Z,87.88
2019-02-21T06:07:43.174Z,83.66
2019-02-21T06:10:40.779Z,78.02
2019-02-21T06:13:44.711Z,73.46
2019-02-21T06:16:44.497Z,67.69
2019-02-21T06:19:58.932Z,63.94
2019-02-21T06:23:10.797Z,60.93
2019-02-21T06:26:26.339Z,59.96
2019-02-21T06:29:22.609Z,59.62
2019-02-21T06:32:15.044Z,58.64
2019-02-21T06:35:05.809Z,58.97
2019-02-21T06:37:56.094Z,59.97
2019-02-21T06:40:47.084Z,60.88
2019-02-21T06:43:38.608Z,62.35
2019-02-21T06:46:28.918Z,61.48
2019-02-21T06:49:19.274Z,60.74
2019-02-21T06:52:09.322Z,59.75
2019-02-21T06:55:02.076Z,60.54
2019-02-21T06:57:51.218Z,58.45
2019-02-21T07:00:41.787Z,58.06
2019-02-21T07:03:32.204Z,57.34
2019-02-21T07:06:31.611Z,56.52
2019-02-21T07:09:15.209Z,56.35
2019-02-21T07:12:05.505Z,56.53
2019-02-21T07:14:55.716Z,57.56
2019-02-21T07:17:49.302Z,57.00
2019-02-21T07:20:39.732Z,53.80
2019-02-21T07:23:40.606Z,45.85
2019-02-21T07:26:21.818Z,40.43
2019-02-21T07:29:12.702Z,36.94
2019-02-21T07:32:02.772Z,34.07
2019-02-21T07:34:53.707Z,32.01
2019-02-21T07:37:44.338Z,31.25
2019-02-21T07:40:35.712Z,31.31
2019-02-21T07:43:25.911Z,32.46
2019-02-21T07:46:16.204Z,34.16
2019-02-21T07:49:06.572Z,35.36
2019-02-21T07:51:57.104Z,39.23
2019-02-21T07:54:49.455Z,39.70
2019-02-21T07:57:39.707Z,43.72
2019-02-21T08:00:29.741Z,42.36
2019-02-21T08:03:29.949Z,42.31
2019-02-21T08:06:12.222Z,42.14
2019-02-21T08:09:02.550Z,40.96
2019-02-21T08:11:56.753Z,38.77
2019-02-21T08:14:46.847Z,36.54
2019-02-21T08:17:37.052Z,31.81
2019-02-21T08:20:34.073Z,30.06
2019-02-21T08:23:20.049Z,28.65
2019-02-21T08:26:11.251Z,27.89
2019-02-21T08:29:01.906Z,26.93
2019-02-21T08:31:52.765Z,27.46
2019-02-21T08:34:48.265Z,27.72
2019-02-21T08:37:39.477Z,25.82
2019-02-21T08:40:30.384Z,25.90
2019-02-21T08:43:21.350Z,26.78
2019-02-21T08:46:12.017Z,26.77
2019-02-21T08:49:02.689Z,28.05
2019-02-21T08:51:55.008Z,28.18
2019-02-21T08:54:45.058Z,29.78
2019-02-21T08:57:35.430Z,29.21
2019-02-21T09:00:26.127Z,29.02
2019-02-21T09:03:18.085Z,28.82
2019-02-21T09:06:08.662Z,29.71
2019-02-21T09:08:58.882Z,29.79
2019-02-21T09:11:49.246Z,31.65
2019-02-21T09:14:40.193Z,33.10
2019-02-21T09:17:32.186Z,33.39
2019-02-21T09:20:22.312Z,33.04
2019-02-21T09:23:12.500Z,30.73
2019-02-21T09:26:02.772Z,30.11
2019-02-21T09:28:53.079Z,30.33
2019-02-21T09:31:43.344Z,28.82
2019-02-21T09:34:34.319Z,29.28
2019-02-21T09:37:24.595Z,29.26
2019-02-21T09:40:17.143Z,29.64
2019-02-21T09:43:07.661Z,29.33
2019-02-21T09:45:58.004Z,29.68
2019-02-21T09:48:48.323Z,31.83
2019-02-21T09:51:38.567Z,32.24
2019-02-21T09:54:28.756Z,31.94
2019-02-21T09:57:19.160Z,33.51
2019-02-21T10:00:15.248Z,33.51
2019-02-21T10:03:05.824Z,35.17
2019-02-21T10:05:56.146Z,35.17
2019-02-21T10:08:46.624Z,37.06
2019-02-21T10:11:39.230Z,34.46
2019-02-21T10:14:29.633Z,35.10
2019-02-21T10:17:19.666Z,35.88
2019-02-21T10:20:12.112Z,36.85
2019-02-21T10:23:03.207Z,36.81
2019-02-21T10:25:53.718Z,37.77
2019-02-21T10:28:45.194Z,35.85
2019-02-21T10:31:35.578Z,36.17
2019-02-21T10:34:25.920Z,35.99
2019-02-21T10:37:16.101Z,34.29
2019-02-21T10:40:07.200Z,35.33
2019-02-21T10:42:57.484Z,35.57
2019-02-21T10:45:48.327Z,33.81
2019-02-21T10:48:38.822Z,35.46
2019-02-21T10:51:29.095Z,33.07
2019-02-21T10:54:19.414Z,34.92
2019-02-21T10:57:09.357Z,32.70
2019-02-21T10:59:59.632Z,34.55
2019-02-21T11:02:53.836Z,33.10
2019-02-21T11:05:45.659Z,35.08
2019-02-21T11:08:35.982Z,33.82
2019-02-21T11:11:27.258Z,35.71
2019-02-21T11:14:17.725Z,35.78
2019-02-21T11:17:08.079Z,36.97
2019-02-21T11:19:58.435Z,40.58
2019-02-21T11:22:48.771Z,43.49
2019-02-21T11:25:38.708Z,48.43
2019-02-21T11:28:29.182Z,45.30
2019-02-21T11:31:19.263Z,47.73
2019-02-21T11:34:09.407Z,51.39
2019-02-21T11:36:59.839Z,39.40
2019-02-21T11:39:50.429Z,41.17
2019-02-21T11:42:40.856Z,36.45
2019-02-21T11:45:31.349Z,37.39
2019-02-21T11:48:21.599Z,39.03
2019-02-21T11:51:12.169Z,45.29
2019-02-21T11:54:02.402Z,49.19
2019-02-21T11:56:52.702Z,46.08
2019-02-21T11:59:42.861Z,40.14
2019-02-21T12:02:38.772Z,39.53
2019-02-21T12:05:31.517Z,41.40
2019-02-21T12:08:16.778Z,36.14
2019-02-21T12:11:06.989Z,37.33
2019-02-21T12:13:57.675Z,38.26
2019-02-21T12:16:48.048Z,45.89
2019-02-21T12:19:38.645Z,49.43
2019-02-21T12:22:28.842Z,51.41
2019-02-21T12:25:19.254Z,50.58
2019-02-21T12:28:09.282Z,49.01
2019-02-21T12:30:59.734Z,48.18
2019-02-21T12:33:49.948Z,43.72
2019-02-21T12:36:39.975Z,48.66
2019-02-21T12:39:30.259Z,47.11
2019-02-21T12:42:20.318Z,40.35
2019-02-21T12:45:12.803Z,39.79
2019-02-21T12:48:03.267Z,41.70
2019-02-21T12:50:53.708Z,43.50
2019-02-21T12:53:43.894Z,42.26
2019-02-21T12:56:34.161Z,46.68
2019-02-21T12:59:25.526Z,46.53
2019-02-21T13:02:15.835Z,45.90
2019-02-21T13:05:06.355Z,45.18
2019-02-21T13:07:57.445Z,46.06
2019-02-21T13:10:47.775Z,44.66
2019-02-21T13:13:38.059Z,43.93
2019-02-21T13:16:28.248Z,43.20
2019-02-21T13:19:18.395Z,42.07
2019-02-21T13:22:11.611Z,41.37
2019-02-21T13:25:01.643Z,41.19
2019-02-21T13:27:54.900Z,42.04
2019-02-21T13:30:45.180Z,42.15
2019-02-21T13:33:35.897Z,43.13
2019-02-21T13:36:26.505Z,42.81
2019-02-21T13:39:16.689Z,43.82
2019-02-21T13:42:06.910Z,44.81
2019-02-21T13:45:00.002Z,43.37
2019-02-21T13:47:50.026Z,44.32
2019-02-21T13:50:40.448Z,43.20
2019-02-21T13:53:30.780Z,44.44
2019-02-21T13:56:21.254Z,45.75
2019-02-21T13:59:11.496Z,45.30
2019-02-21T14:02:01.883Z,43.71
2019-02-21T14:04:52.313Z,43.76
2019-02-21T14:07:43.010Z,44.07
2019-02-21T14:10:33.522Z,44.29
2019-02-21T14:13:23.877Z,42.52
2019-02-21T14:16:14.240Z,43.61
2019-02-21T14:19:04.297Z,42.90
2019-02-21T14:21:54.701Z,44.21
2019-02-21T14:24:44.752Z,42.78
2019-02-21T14:27:35.058Z,41.89
2019-02-21T14:30:25.536Z,46.26
2019-02-21T14:33:17.449Z,47.38
2019-02-21T14:36:15.104Z,46.87
2019-02-21T14:39:00.085Z,48.34
2019-02-21T14:41:50.300Z,51.08
2019-02-21T14:44:40.839Z,51.28
2019-02-21T14:47:35.161Z,50.61
2019-02-21T14:50:25.307Z,52.32
2019-02-21T14:53:18.573Z,53.24
2019-02-21T14:56:09.027Z,52.95
2019-02-21T14:58:59.932Z,54.15
2019-02-21T15:01:50.336Z,54.46
2019-02-21T15:04:40.705Z,55.04
2019-02-21T15:07:30.805Z,56.67
2019-02-21T15:10:21.268Z,56.90
2019-02-21T15:13:12.460Z,61.52
2019-02-21T15:16:02.527Z,63.92
2019-02-21T15:18:55.185Z,65.58
2019-02-21T15:21:45.204Z,67.67
2019-02-21T15:24:35.612Z,69.99
2019-02-21T15:27:26.058Z,70.92
2019-02-21T15:30:18.112Z,71.93
2019-02-21T15:33:08.247Z,73.22
2019-02-21T15:35:58.734Z,76.33
2019-02-21T15:38:49.266Z,78.06
2019-02-21T15:41:40.865Z,79.58
2019-02-21T15:44:32.115Z,81.81
2019-02-21T15:47:22.523Z,83.50
2019-02-21T15:50:13.208Z,85.50
2019-02-21T15:53:03.293Z,87.17
2019-02-21T15:55:53.791Z,89.14
2019-02-21T15:58:43.813Z,90.15
2019-02-21T16:01:34.232Z,92.00
2019-02-21T16:04:24.624Z,93.56
2019-02-21T16:07:14.967Z,95.44
2019-02-21T16:10:08.027Z,96.46
2019-02-21T16:12:58.862Z,97.77
2019-02-21T16:15:49.671Z,98.29
2019-02-21T16:18:40.207Z,98.25
2019-02-21T16:21:30.516Z,98.29
2019-02-21T16:24:20.625Z,99.41
2019-02-21T16:27:10.893Z,99.45
2019-02-21T16:30:00.965Z,100.00
2019-02-21T16:32:51.285Z,100.00
2019-02-21T16:35:41.537Z,100.00
2019-02-21T16:38:31.709Z,100.00
2019-02-21T16:41:22.117Z,100.00
2019-02-21T16:44:12.595Z,100.00
2019-02-21T16:47:05.751Z,100.00
2019-02-21T16:49:58.365Z,100.00
2019-02-21T16:52:48.815Z,100.00
2019-02-21T16:55:39.313Z,100.00
2019-02-21T16:58:29.776Z,100.00
2019-02-21T17:01:20.133Z,100.00
2019-02-21T17:04:10.487Z,100.00
2019-02-21T17:07:00.926Z,100.00
2019-02-21T17:09:51.333Z,100.00
2019-02-21T17:12:41.654Z,100.00
2019-02-21T17:15:31.883Z,100.00
2019-02-21T17:18:22.283Z,100.00
2019-02-21T17:21:12.784Z,100.00
2019-02-21T17:24:03.301Z,100.00
2019-02-21T17:26:53.894Z,100.00
2019-02-21T17:29:44.376Z,100.00
2019-02-21T17:32:34.640Z,100.00
2019-02-21T17:35:24.902Z,100.00
2019-02-21T17:38:17.813Z,100.00
2019-02-21T17:41:10.871Z,100.00
2019-02-21T17:44:01.279Z,100.00
2019-02-21T17:46:51.715Z,100.00
2019-02-21T17:49:43.453Z,100.00
2019-02-21T17:52:33.782Z,98.94
2019-02-21T17:55:23.990Z,98.37
2019-02-21T17:58:14.295Z,98.30
2019-02-21T18:01:05.732Z,98.06
2019-02-21T18:03:55.730Z,98.08
2019-02-21T18:06:46.197Z,98.23
2019-02-21T18:09:36.772Z,98.18
2019-02-21T18:12:27.474Z,97.93
2019-02-21T18:15:19.544Z,99.00
2019-02-21T18:18:09.888Z,98.69
2019-02-21T18:20:59.887Z,98.38
2019-02-21T18:23:50.361Z,98.01
2019-02-21T18:26:40.570Z,98.27
2019-02-21T18:29:30.978Z,98.10
2019-02-21T18:32:22.466Z,98.12
2019-02-21T18:35:12.982Z,98.12
2019-02-21T18:38:03.330Z,97.84
2019-02-21T18:40:54.575Z,98.45
2019-02-21T18:43:45.171Z,99.08
2019-02-21T18:46:35.760Z,99.40
2019-02-21T18:49:26.277Z,99.80
2019-02-21T18:52:16.444Z,100.00
2019-02-21T18:55:07.061Z,100.00
2019-02-21T18:57:57.121Z,100.00
2019-02-21T19:00:47.474Z,100.00
2019-02-21T19:03:37.923Z,100.00
2019-02-21T19:06:27.958Z,100.00
2019-02-21T19:09:21.036Z,100.00
2019-02-21T19:12:11.030Z,100.00
2019-02-21T19:15:01.745Z,100.00
2019-02-21T19:17:55.037Z,100.00
2019-02-21T19:20:45.488Z,100.00
2019-02-21T19:23:35.647Z,100.00
2019-02-21T19:26:26.208Z,100.00
2019-02-21T19:29:16.691Z,100.00
2019-02-21T19:32:07.100Z,100.00
2019-02-21T19:34:57.374Z,100.00
2019-02-21T19:37:47.878Z,100.00
2019-02-21T19:40:38.157Z,100.00
2019-02-21T19:43:28.320Z,100.00
2019-02-21T19:46:18.679Z,100.00
2019-02-21T19:49:09.195Z,100.00
2019-02-21T19:51:59.754Z,100.00
2019-02-21T19:54:50.339Z,99.21
2019-02-21T19:57:40.875Z,98.03
2019-02-21T20:00:32.988Z,96.82
2019-02-21T20:03:22.989Z,97.24
2019-02-21T20:06:13.345Z,96.97
2019-02-21T20:09:04.851Z,98.33
2019-02-21T20:11:56.707Z,99.97
2019-02-21T20:14:46.939Z,100.00
2019-02-21T20:17:37.363Z,100.00
2019-02-21T20:20:27.672Z,99.75
2019-02-21T20:23:18.051Z,98.19
2019-02-21T20:26:17.957Z,97.89
2019-02-21T20:29:00.478Z,98.55
2019-02-21T20:31:50.976Z,98.66
2019-02-21T20:34:41.455Z,98.00
2019-02-21T20:37:31.720Z,98.14
2019-02-21T20:40:22.228Z,98.14
2019-02-21T20:43:12.270Z,97.38
2019-02-21T20:46:02.948Z,97.48
2019-02-21T20:48:53.391Z,98.02
2019-02-21T20:51:43.732Z,98.89
2019-02-21T20:54:34.126Z,99.06
2019-02-21T20:57:24.933Z,99.35
2019-02-21T21:00:15.306Z,97.98
2019-02-21T21:03:07.000Z,95.88
2019-02-21T21:05:57.351Z,96.11
2019-02-21T21:08:47.823Z,95.61
2019-02-21T21:11:39.402Z,94.88
2019-02-21T21:14:29.733Z,94.51
2019-02-21T21:17:20.221Z,93.95
2019-02-21T21:20:16.384Z,92.88
2019-02-21T21:23:03.451Z,91.08
2019-02-21T21:25:53.735Z,90.64
2019-02-21T21:28:44.083Z,89.95
2019-02-21T21:31:34.188Z,88.52
2019-02-21T21:34:24.417Z,89.31
2019-02-21T21:37:14.871Z,89.69
2019-02-21T21:40:05.817Z,90.22
2019-02-21T21:42:56.403Z,92.06
2019-02-21T21:45:46.837Z,92.02
2019-02-21T21:48:37.535Z,92.63
2019-02-21T21:51:28.051Z,92.95
2019-02-21T21:54:19.824Z,93.27
2019-02-21T21:57:10.715Z,94.54
2019-02-21T22:00:01.125Z,95.38
2019-02-21T22:02:53.043Z,95.18
2019-02-21T22:05:43.511Z,95.72
2019-02-21T22:08:34.116Z,95.16
2019-02-21T22:11:25.510Z,96.06
2019-02-21T22:14:15.880Z,96.52
2019-02-21T22:17:05.948Z,96.39
2019-02-21T22:19:56.191Z,95.95
2019-02-21T22:22:46.518Z,95.86
2019-02-21T22:25:37.376Z,95.91
2019-02-21T22:28:28.025Z,95.00
2019-02-21T22:31:18.442Z,94.41
2019-02-21T22:34:08.827Z,93.57
2019-02-21T22:36:59.208Z,93.58
2019-02-21T22:39:49.497Z,93.29
2019-02-21T22:42:39.867Z,93.29
2019-02-21T22:45:31.233Z,92.49
2019-02-21T22:48:21.524Z,92.67
2019-02-21T22:51:11.885Z,94.84
2019-02-21T22:54:01.941Z,95.44
2019-02-21T22:56:52.538Z,96.31
2019-02-21T22:59:43.259Z,96.49
2019-02-21T23:02:34.964Z,96.70
2019-02-21T23:05:56.736Z,96.61
2019-02-21T23:08:53.204Z,97.10
2019-02-21T23:11:45.808Z,97.66
2019-02-21T23:14:36.270Z,98.33
2019-02-21T23:17:29.080Z,100.00
2019-02-21T23:20:19.400Z,100.00
2019-02-21T23:23:12.457Z,100.00
2019-02-21T23:26:02.915Z,100.00
2019-02-21T23:28:53.294Z,100.00
2019-02-21T23:31:43.775Z,100.00
2019-02-21T23:34:38.667Z,100.00
2019-02-21T23:37:29.092Z,100.00
2019-02-21T23:40:19.551Z,100.00
2019-02-21T23:43:10.124Z,100.00
2019-02-21T23:46:04.257Z,100.00
2019-02-21T23:48:57.383Z,100.00
2019-02-21T23:51:47.610Z,100.00
2019-02-21T23:54:38.215Z,100.00
2019-02-21T23:57:28.620Z,100.00
